createdAt,value
2022-09-07T00:01:07.493Z,63.25
2022-09-07T00:03:37.583Z,63.66
2022-09-07T00:06:08.977Z,64.59
2022-09-07T00:08:36.875Z,66.21
2022-09-07T00:11:07.610Z,66.10
2022-09-07T00:13:37.857Z,66.19
2022-09-07T00:16:12.068Z,65.96
2022-09-07T00:18:45.094Z,65.97
2022-09-07T00:21:15.238Z,67.11
2022-09-07T00:23:42.716Z,67.83
2022-09-07T00:26:13.756Z,66.18
2022-09-07T00:28:42.336Z,67.19
2022-09-07T00:31:13.527Z,66.86
2022-09-07T00:33:42.126Z,66.77
2022-09-07T00:36:09.785Z,68.37
2022-09-07T00:38:37.831Z,68.07
2022-09-07T00:41:05.923Z,68.67
2022-09-07T00:43:35.205Z,67.60
2022-09-07T00:46:04.508Z,68.23
2022-09-07T00:48:39.723Z,68.02
2022-09-07T00:51:12.177Z,67.67
2022-09-07T00:53:43.835Z,68.13
2022-09-07T00:56:11.910Z,70.45
2022-09-07T00:58:42.735Z,69.54
2022-09-07T01:01:13.970Z,70.54
2022-09-07T01:03:47.700Z,70.04
2022-09-07T01:06:25.242Z,70.63
2022-09-07T01:08:55.027Z,70.26
2022-09-07T01:11:23.022Z,70.31
2022-09-07T01:13:51.961Z,69.87
2022-09-07T01:16:37.998Z,68.70
2022-09-07T01:19:27.181Z,68.96
2022-09-07T01:21:57.494Z,68.86
2022-09-07T01:24:35.425Z,69.38
2022-09-07T01:27:47.601Z,68.99
2022-09-07T01:30:17.953Z,68.06
2022-09-07T01:33:04.477Z,68.38
2022-09-07T01:35:53.599Z,68.22
2022-09-07T01:38:30.378Z,68.91
2022-09-07T01:41:07.823Z,70.42
2022-09-07T01:43:53.497Z,70.28
2022-09-07T01:46:29.474Z,69.77
2022-09-07T01:49:23.015Z,69.76
2022-09-07T01:51:57.218Z,69.94
2022-09-07T01:54:32.091Z,69.99
2022-09-07T01:57:08.970Z,70.62
2022-09-07T01:59:42.731Z,71.14
2022-09-07T02:02:16.787Z,71.02
2022-09-07T02:05:02.109Z,72.12
2022-09-07T02:07:45.388Z,72.04
2022-09-07T02:10:26.860Z,72.52
2022-09-07T02:13:16.584Z,72.63
2022-09-07T02:15:57.917Z,72.79
2022-09-07T02:18:29.667Z,73.04
2022-09-07T02:20:58.154Z,74.01
2022-09-07T02:23:30.745Z,74.43
2022-09-07T02:26:07.334Z,74.58
2022-09-07T02:28:36.755Z,74.23
2022-09-07T02:31:04.681Z,72.84
2022-09-07T02:33:32.299Z,75.78
2022-09-07T02:36:01.727Z,74.83
2022-09-07T02:38:30.233Z,75.33
2022-09-07T02:41:00.639Z,75.56
2022-09-07T02:43:30.392Z,76.07
2022-09-07T02:46:14.927Z,76.57
2022-09-07T02:48:54.505Z,76.92
2022-09-07T02:51:52.348Z,78.12
2022-09-07T02:54:28.783Z,77.39
2022-09-07T02:57:03.913Z,77.59
2022-09-07T03:00:01.513Z,77.76
2022-09-07T03:02:33.008Z,77.62
2022-09-07T03:05:21.623Z,77.44
2022-09-07T03:08:07.440Z,76.30
2022-09-07T03:10:37.779Z,76.37
2022-09-07T03:13:06.186Z,76.97
2022-09-07T03:15:33.668Z,76.29
2022-09-07T03:18:01.462Z,77.93
2022-09-07T03:20:30.864Z,78.07
2022-09-07T03:22:58.278Z,78.17
2022-09-07T03:25:25.696Z,78.81
2022-09-07T03:27:53.254Z,78.09
2022-09-07T03:30:20.751Z,78.15
2022-09-07T03:32:48.375Z,78.40
2022-09-07T03:35:15.948Z,78.73
2022-09-07T03:37:44.111Z,79.02
2022-09-07T03:40:14.248Z,78.97
2022-09-07T03:42:42.009Z,80.52
2022-09-07T03:45:10.555Z,80.63
2022-09-07T03:47:39.015Z,80.88
2022-09-07T03:50:07.519Z,81.28
2022-09-07T03:52:36.378Z,80.85
2022-09-07T03:55:04.991Z,80.61
2022-09-07T03:57:32.424Z,81.03
2022-09-07T03:59:59.869Z,80.77
2022-09-07T04:02:27.454Z,81.96
2022-09-07T04:04:54.932Z,80.89
2022-09-07T04:07:22.481Z,80.58
2022-09-07T04:09:51.460Z,80.29
2022-09-07T04:12:19.060Z,80.42
2022-09-07T04:14:46.554Z,81.14
2022-09-07T04:17:14.063Z,82.79
2022-09-07T04:19:41.628Z,82.58
2022-09-07T04:22:09.085Z,83.75
2022-09-07T04:24:36.564Z,84.79
2022-09-07T04:27:04.123Z,85.04
2022-09-07T04:29:31.560Z,84.72
2022-09-07T04:31:58.970Z,84.71
2022-09-07T04:34:26.418Z,85.13
2022-09-07T04:36:53.860Z,84.50
2022-09-07T04:39:21.273Z,85.13
2022-09-07T04:41:48.679Z,85.48
2022-09-07T04:44:17.125Z,85.94
2022-09-07T04:46:44.793Z,85.88
2022-09-07T04:49:12.340Z,86.58
2022-09-07T04:51:42.650Z,83.98
2022-09-07T04:54:10.782Z,84.88
2022-09-07T04:56:38.243Z,85.28
2022-09-07T04:59:05.813Z,84.55
2022-09-07T05:01:34.210Z,84.70
2022-09-07T05:04:03.354Z,84.97
2022-09-07T05:06:30.910Z,84.86
2022-09-07T05:08:59.167Z,84.72
2022-09-07T05:11:29.471Z,84.48
2022-09-07T05:13:59.596Z,83.69
2022-09-07T05:16:28.755Z,83.44
2022-09-07T05:18:58.896Z,83.58
2022-09-07T05:21:28.968Z,83.19
2022-09-07T05:23:58.098Z,83.59
2022-09-07T05:26:28.036Z,83.47
2022-09-07T05:31:46.575Z,83.03
2022-09-07T05:34:31.241Z,83.20
2022-09-07T05:36:59.755Z,83.75
2022-09-07T05:39:28.267Z,82.65
2022-09-07T05:41:56.457Z,82.45
2022-09-07T05:47:11.958Z,80.05
2022-09-07T05:49:39.519Z,78.40
2022-09-07T05:52:07.056Z,77.16
2022-09-07T05:54:34.801Z,75.92
2022-09-07T05:57:03.653Z,75.82
2022-09-07T05:59:31.392Z,75.98
2022-09-07T06:01:59.594Z,75.66
2022-09-07T06:04:27.146Z,75.64
2022-09-07T06:12:29.690Z,74.14
2022-09-07T06:14:57.215Z,72.97
2022-09-07T06:17:24.678Z,72.81
2022-09-07T06:19:52.236Z,71.71
2022-09-07T06:22:19.682Z,71.07
2022-09-07T06:24:47.136Z,69.53
2022-09-07T06:27:14.602Z,68.60
2022-09-07T06:29:42.211Z,69.04
2022-09-07T06:34:57.280Z,67.32
2022-09-07T06:37:25.061Z,63.83
2022-09-07T06:39:52.607Z,62.74
2022-09-07T06:42:20.072Z,59.52
2022-09-07T06:44:52.660Z,58.10
2022-09-07T06:47:20.571Z,54.16
2022-09-07T06:49:47.967Z,51.69
2022-09-07T06:52:15.425Z,49.71
2022-09-07T06:57:27.100Z,56.71
2022-09-07T06:59:54.696Z,57.03
2022-09-07T07:02:22.119Z,56.46
2022-09-07T07:04:50.420Z,55.41
2022-09-07T07:07:17.930Z,56.89
2022-09-07T07:09:45.417Z,56.75
2022-09-07T07:12:12.853Z,56.39
2022-09-07T07:14:44.651Z,56.14
2022-09-07T07:17:13.224Z,59.30
2022-09-07T07:19:40.826Z,62.47
2022-09-07T07:22:23.960Z,62.29
2022-09-07T07:24:55.894Z,57.11
2022-09-07T07:27:23.452Z,54.14
2022-09-07T07:29:52.456Z,51.16
2022-09-07T07:32:20.119Z,49.07
2022-09-07T07:34:47.543Z,48.54
2022-09-07T07:37:15.976Z,47.40
2022-09-07T07:42:32.565Z,45.32
2022-09-07T07:47:53.527Z,43.60
2022-09-07T07:50:36.262Z,43.28
2022-09-07T07:55:54.133Z,42.28
2022-09-07T07:58:21.761Z,41.05
2022-09-07T08:00:56.984Z,39.63
2022-09-07T08:03:27.217Z,40.37
2022-09-07T08:05:55.482Z,39.14
2022-09-07T08:08:23.745Z,38.86
2022-09-07T08:10:54.025Z,39.82
2022-09-07T08:13:21.625Z,37.27
2022-09-07T08:15:49.792Z,39.78
2022-09-07T08:18:20.075Z,40.48
2022-09-07T08:20:47.383Z,41.98
2022-09-07T08:23:15.433Z,43.02
2022-09-07T08:25:53.581Z,46.25
2022-09-07T08:28:23.456Z,45.47
2022-09-07T08:30:51.032Z,44.53
2022-09-07T08:33:18.772Z,47.05
2022-09-07T08:35:56.303Z,46.21
2022-09-07T08:38:24.260Z,46.14
2022-09-07T08:40:51.903Z,46.01
2022-09-07T08:43:47.132Z,46.27
2022-09-07T08:46:30.991Z,45.98
2022-09-07T08:49:00.031Z,45.76
2022-09-07T08:51:44.174Z,46.07
2022-09-07T08:54:14.106Z,43.20
2022-09-07T08:57:20.537Z,40.46
2022-09-07T08:59:51.289Z,37.98
2022-09-07T09:02:41.994Z,39.04
2022-09-07T09:05:38.172Z,38.99
2022-09-07T09:08:25.148Z,39.19
2022-09-07T09:11:06.058Z,39.66
2022-09-07T09:13:52.355Z,37.05
2022-09-07T09:16:27.032Z,39.20
2022-09-07T09:19:15.461Z,37.92
2022-09-07T09:21:44.281Z,37.92
2022-09-07T09:24:19.883Z,36.57
2022-09-07T09:26:53.113Z,36.24
2022-09-07T09:29:22.923Z,36.22
2022-09-07T09:31:50.174Z,36.45
2022-09-07T09:34:23.795Z,38.02
2022-09-07T09:36:56.682Z,37.45
2022-09-07T09:39:30.942Z,37.92
2022-09-07T09:42:03.377Z,38.03
2022-09-07T09:44:37.497Z,37.39
2022-09-07T09:49:54.448Z,36.56
2022-09-07T09:52:34.812Z,38.38
2022-09-07T10:01:24.806Z,39.18
2022-09-07T10:06:24.420Z,39.03
2022-09-07T10:08:56.540Z,39.08
2022-09-07T10:14:35.323Z,38.71
2022-09-07T10:17:13.205Z,39.55
2022-09-07T10:19:42.965Z,39.29
2022-09-07T10:22:32.202Z,39.27
2022-09-07T10:25:00.947Z,38.01
2022-09-07T10:27:32.020Z,39.23
2022-09-07T10:30:01.277Z,40.95
2022-09-07T10:32:37.524Z,40.81
2022-09-07T10:35:28.101Z,41.72
2022-09-07T10:38:27.712Z,42.72
2022-09-07T10:41:09.738Z,41.89
2022-09-07T10:43:49.838Z,42.65
2022-09-07T10:49:25.337Z,38.79
2022-09-07T10:52:05.441Z,39.22
2022-09-07T10:54:46.804Z,39.44
2022-09-07T10:57:26.817Z,40.46
2022-09-07T11:00:13.502Z,42.64
2022-09-07T11:06:06.617Z,43.28
2022-09-07T11:09:16.654Z,46.73
2022-09-07T11:12:24.909Z,45.10
2022-09-07T11:15:13.201Z,47.32
2022-09-07T11:18:01.274Z,47.29
2022-09-07T11:20:34.496Z,48.24
2022-09-07T11:23:20.410Z,46.30
2022-09-07T11:26:07.496Z,45.37
2022-09-07T11:31:46.057Z,44.10
2022-09-07T11:34:25.991Z,45.05
2022-09-07T11:37:01.007Z,45.59
2022-09-07T11:40:06.424Z,44.44
2022-09-07T11:43:18.758Z,45.13
2022-09-07T11:45:51.321Z,45.57
2022-09-07T11:48:30.451Z,45.12
2022-09-07T11:51:02.651Z,44.66
2022-09-07T11:53:34.470Z,46.40
2022-09-07T11:56:18.173Z,46.84
2022-09-07T11:59:05.665Z,47.75
2022-09-07T12:01:38.842Z,46.08
2022-09-07T12:04:13.204Z,47.77
2022-09-07T12:07:06.943Z,46.32
2022-09-07T12:10:00.801Z,48.79
2022-09-07T12:12:46.736Z,48.56
2022-09-07T12:15:35.009Z,47.08
2022-09-07T12:18:14.446Z,46.70
2022-09-07T12:20:47.847Z,45.80
2022-09-07T12:23:15.086Z,46.21
2022-09-07T12:25:45.763Z,47.04
2022-09-07T12:28:24.643Z,47.63
2022-09-07T12:31:04.537Z,46.61
2022-09-07T12:33:38.863Z,48.75
2022-09-07T12:36:28.014Z,48.31
2022-09-07T12:39:25.261Z,47.61
2022-09-07T12:42:37.885Z,47.69
2022-09-07T12:45:37.723Z,47.72
2022-09-07T12:48:16.187Z,47.75
2022-09-07T12:51:16.052Z,49.21
2022-09-07T12:54:16.762Z,47.31
2022-09-07T13:00:32.489Z,44.97
2022-09-07T13:09:30.550Z,44.73
2022-09-07T13:12:04.832Z,44.32
2022-09-07T13:14:36.963Z,44.10
2022-09-07T13:17:38.879Z,44.64
2022-09-07T13:20:08.918Z,44.23
2022-09-07T13:22:36.201Z,44.13
2022-09-07T13:25:27.182Z,45.33
2022-09-07T13:28:01.636Z,45.52
2022-09-07T13:30:34.726Z,45.30
2022-09-07T13:33:24.132Z,46.17
2022-09-07T13:35:54.289Z,45.57
2022-09-07T13:38:21.791Z,46.58
2022-09-07T13:40:52.484Z,47.60
2022-09-07T13:43:25.383Z,48.83
2022-09-07T13:45:55.875Z,49.38
2022-09-07T13:48:35.523Z,46.90
2022-09-07T13:51:13.245Z,47.85
2022-09-07T13:53:56.419Z,49.09
2022-09-07T13:56:39.265Z,49.95
2022-09-07T13:59:22.684Z,49.92
2022-09-07T14:01:50.747Z,50.50
2022-09-07T14:04:32.255Z,48.64
2022-09-07T14:07:06.595Z,49.33
2022-09-07T14:09:34.911Z,49.93
2022-09-07T14:12:02.434Z,49.45
2022-09-07T14:14:32.961Z,50.23
2022-09-07T14:17:00.194Z,49.83
2022-09-07T14:19:33.738Z,50.79
2022-09-07T14:22:07.176Z,50.57
2022-09-07T14:24:40.531Z,51.66
2022-09-07T14:27:20.694Z,50.95
2022-09-07T14:29:48.482Z,52.05
2022-09-07T14:32:24.563Z,51.31
2022-09-07T14:34:52.499Z,50.33
2022-09-07T14:37:21.894Z,51.50
2022-09-07T14:39:50.831Z,51.48
2022-09-07T14:42:23.754Z,51.59
2022-09-07T14:45:11.570Z,51.67
2022-09-07T14:47:40.660Z,51.95
2022-09-07T14:50:20.367Z,51.63
2022-09-07T14:53:34.288Z,51.24
2022-09-07T14:55:40.675Z,51.54
2022-09-07T14:58:22.839Z,51.67
2022-09-07T15:03:57.464Z,51.99
2022-09-07T15:09:30.727Z,51.96
2022-09-07T15:12:36.101Z,51.71
2022-09-07T15:15:27.090Z,51.80
2022-09-07T15:18:01.861Z,51.48
2022-09-07T15:20:41.700Z,51.36
2022-09-07T15:23:17.482Z,51.61
2022-09-07T15:25:51.968Z,51.08
2022-09-07T15:34:11.544Z,50.14
2022-09-07T15:36:42.896Z,49.22
2022-09-07T15:39:19.955Z,49.65
2022-09-07T15:41:47.490Z,49.29
2022-09-07T15:44:16.018Z,51.21
2022-09-07T15:47:43.177Z,50.15
2022-09-07T15:49:31.707Z,50.97
2022-09-07T15:52:06.611Z,51.15
2022-09-07T15:54:39.225Z,51.08
2022-09-07T15:59:54.284Z,52.50
2022-09-07T16:05:12.252Z,51.94
2022-09-07T16:10:31.136Z,51.26
2022-09-07T16:13:01.207Z,52.44
2022-09-07T16:15:31.317Z,52.40
2022-09-07T16:17:58.776Z,53.88
2022-09-07T16:20:26.860Z,53.42
2022-09-07T16:25:43.291Z,52.80
2022-09-07T16:28:11.116Z,53.47
2022-09-07T16:30:40.675Z,53.86
2022-09-07T16:33:08.468Z,53.27
2022-09-07T16:35:38.007Z,53.64
2022-09-07T16:40:52.823Z,54.05
2022-09-07T16:43:20.533Z,53.60
2022-09-07T16:46:03.219Z,53.46
2022-09-07T16:48:32.302Z,53.78
2022-09-07T16:51:02.550Z,53.52
2022-09-07T16:53:32.238Z,54.29
2022-09-07T16:56:04.799Z,55.47
2022-09-07T16:58:37.662Z,56.71
2022-09-07T17:01:06.762Z,57.20
2022-09-07T17:03:35.791Z,57.03
2022-09-07T17:06:06.198Z,55.14
2022-09-07T17:08:34.718Z,55.02
2022-09-07T17:11:06.141Z,55.74
2022-09-07T17:13:34.729Z,55.20
2022-09-07T17:16:13.747Z,56.09
2022-09-07T17:21:37.043Z,57.60
2022-09-07T17:24:06.511Z,58.83
2022-09-07T17:26:34.364Z,59.11
2022-09-07T17:29:02.042Z,59.44
2022-09-07T17:34:22.062Z,61.29
2022-09-07T17:36:49.501Z,61.54
2022-09-07T17:39:18.639Z,61.50
2022-09-07T17:41:48.332Z,62.18
2022-09-07T17:44:16.050Z,62.84
2022-09-07T17:46:43.557Z,64.13
2022-09-07T17:49:13.943Z,64.31
2022-09-07T17:51:41.441Z,64.44
2022-09-07T17:54:13.462Z,64.43
2022-09-07T17:56:41.764Z,64.61
2022-09-07T18:01:58.820Z,64.83
2022-09-07T18:04:26.435Z,65.44
2022-09-07T18:06:54.525Z,65.26
2022-09-07T18:09:21.941Z,65.48
2022-09-07T18:11:50.310Z,65.61
2022-09-07T18:14:19.032Z,65.33
2022-09-07T18:16:49.219Z,64.43
2022-09-07T18:19:18.230Z,65.32
2022-09-07T18:21:48.922Z,65.87
2022-09-07T18:24:19.905Z,65.89
2022-09-07T18:26:50.460Z,65.63
2022-09-07T18:29:36.831Z,66.52
2022-09-07T18:32:09.392Z,67.42
2022-09-07T18:34:40.673Z,67.54
2022-09-07T18:37:08.924Z,69.02
2022-09-07T18:39:36.721Z,69.55
2022-09-07T18:42:04.270Z,70.71
2022-09-07T18:47:28.951Z,71.59
2022-09-07T18:49:57.538Z,72.41
2022-09-07T18:55:13.008Z,72.28
2022-09-07T18:57:40.294Z,72.96
2022-09-07T19:00:09.486Z,73.12
2022-09-07T19:02:37.190Z,73.73
2022-09-07T19:07:53.328Z,73.61
2022-09-07T19:10:20.841Z,75.06
2022-09-07T19:12:48.068Z,74.35
2022-09-07T19:15:15.666Z,74.71
2022-09-07T19:17:44.270Z,74.99
2022-09-07T19:20:11.862Z,74.94
2022-09-07T19:22:39.341Z,75.93
2022-09-07T19:25:06.953Z,75.04
2022-09-07T19:27:34.444Z,75.59
2022-09-07T19:30:01.882Z,75.89
2022-09-07T19:32:29.282Z,75.73
2022-09-07T19:34:56.846Z,76.15
2022-09-07T19:37:25.521Z,76.19
2022-09-07T19:39:56.636Z,76.22
2022-09-07T19:42:25.303Z,76.10
2022-09-07T19:44:53.830Z,76.24
2022-09-07T19:47:21.979Z,76.43
2022-09-07T19:49:49.342Z,76.74
2022-09-07T19:52:16.662Z,76.48
2022-09-07T19:54:43.994Z,76.52
2022-09-07T19:57:11.449Z,76.41
2022-09-07T19:59:38.787Z,76.41
2022-09-07T20:02:07.163Z,76.73
2022-09-07T20:04:35.830Z,76.42
2022-09-07T20:07:06.622Z,76.22
2022-09-07T20:09:34.247Z,76.65
2022-09-07T20:12:03.723Z,76.80
2022-09-07T20:14:31.050Z,76.78
2022-09-07T20:16:58.429Z,76.61
2022-09-07T20:19:25.839Z,76.42
2022-09-07T20:21:56.094Z,76.58
2022-09-07T20:24:23.424Z,75.71
2022-09-07T20:26:50.768Z,75.01
2022-09-07T20:29:27.820Z,75.18
2022-09-07T20:31:59.371Z,75.93
2022-09-07T20:34:28.050Z,76.28
2022-09-07T20:36:56.846Z,75.85
2022-09-07T20:39:24.268Z,75.22
2022-09-07T20:41:51.804Z,74.60
2022-09-07T20:44:19.306Z,74.95
2022-09-07T20:46:46.723Z,74.78
2022-09-07T20:49:14.009Z,75.17
2022-09-07T20:51:41.444Z,74.96
2022-09-07T20:54:08.658Z,75.39
2022-09-07T20:56:35.926Z,76.10
2022-09-07T20:59:03.954Z,75.46
2022-09-07T21:01:32.619Z,75.90
2022-09-07T21:04:01.291Z,76.14
2022-09-07T21:06:29.578Z,76.75
2022-09-07T21:08:57.985Z,76.65
2022-09-07T21:11:31.165Z,76.17
2022-09-07T21:14:06.991Z,76.56
2022-09-07T21:16:35.358Z,75.16
2022-09-07T21:19:05.140Z,75.70
2022-09-07T21:21:39.333Z,76.09
2022-09-07T21:24:15.076Z,75.24
2022-09-07T21:26:42.439Z,75.24
2022-09-07T21:29:15.732Z,74.41
2022-09-07T21:31:46.380Z,73.84
2022-09-07T21:34:14.941Z,73.97
2022-09-07T21:36:42.720Z,73.97
2022-09-07T21:39:13.843Z,74.31
2022-09-07T21:41:43.102Z,74.62
2022-09-07T21:44:13.047Z,74.23
2022-09-07T21:46:41.521Z,74.21
2022-09-07T21:49:11.733Z,74.23
2022-09-07T21:51:39.225Z,74.07
2022-09-07T21:54:07.674Z,74.72
2022-09-07T21:56:35.052Z,74.62
2022-09-07T21:59:02.759Z,75.18
2022-09-07T22:01:30.878Z,74.77
2022-09-07T22:04:00.908Z,74.73
2022-09-07T22:06:29.207Z,75.43
2022-09-07T22:08:56.873Z,75.58
2022-09-07T22:11:26.204Z,75.21
2022-09-07T22:13:55.664Z,75.82
2022-09-07T22:16:23.355Z,76.39
2022-09-07T22:18:50.778Z,77.25
2022-09-07T22:21:29.112Z,77.33
2022-09-07T22:24:02.179Z,78.26
2022-09-07T22:26:35.281Z,79.10
2022-09-07T22:29:02.787Z,79.77
2022-09-07T22:31:32.405Z,79.98
2022-09-07T22:34:01.940Z,79.71
2022-09-07T22:36:32.787Z,79.38
2022-09-07T22:39:03.501Z,78.31
2022-09-07T22:41:34.100Z,78.51
2022-09-07T22:44:20.286Z,78.57
2022-09-07T22:46:50.347Z,77.90
2022-09-07T22:49:18.048Z,78.51
2022-09-07T22:51:45.750Z,78.73
2022-09-07T22:54:13.221Z,78.55
2022-09-07T22:56:40.927Z,79.24
2022-09-07T22:59:09.387Z,80.59
2022-09-07T23:01:37.396Z,80.92
2022-09-07T23:04:05.042Z,81.30
2022-09-07T23:06:37.821Z,82.38
2022-09-07T23:09:12.384Z,81.98
2022-09-07T23:11:39.749Z,82.18
2022-09-07T23:14:11.917Z,81.92
2022-09-07T23:16:39.518Z,82.13
2022-09-07T23:19:06.967Z,81.95
2022-09-07T23:21:34.227Z,81.87
2022-09-07T23:24:02.098Z,82.32
2022-09-07T23:26:31.356Z,82.69
2022-09-07T23:29:04.792Z,82.46
2022-09-07T23:31:34.898Z,81.93
2022-09-07T23:34:02.874Z,81.99
2022-09-07T23:36:30.807Z,82.18
2022-09-07T23:38:59.517Z,81.85
2022-09-07T23:41:27.824Z,81.34
2022-09-07T23:43:55.376Z,81.45
2022-09-07T23:46:23.463Z,81.44
2022-09-07T23:48:51.159Z,81.47
2022-09-07T23:51:23.535Z,81.75
2022-09-07T23:53:52.862Z,82.34
2022-09-07T23:56:21.565Z,82.59
2022-09-07T23:58:48.857Z,82.32
